sensor_id;sensor_type;location;lat;lon;timestamp;pressure;altitude;pressure_sealevel;temperature;humidity
34696;BME280;20918;51.138;17.370;2022-08-30T00:01:04;100586.13;;;13.38;77.80
34696;BME280;20918;51.138;17.370;2022-08-30T00:04:06;100590.79;;;13.40;77.95
34696;BME280;20918;51.138;17.370;2022-08-30T00:07:07;100584.79;;;13.38;77.62
34696;BME280;20918;51.138;17.370;2022-08-30T00:10:09;100585.65;;;13.31;77.32
34696;BME280;20918;51.138;17.370;2022-08-30T00:13:10;100585.65;;;13.22;77.28
34696;BME280;20918;51.138;17.370;2022-08-30T00:16:13;100586.98;;;13.22;78.05
34696;BME280;20918;51.138;17.370;2022-08-30T00:19:15;100591.02;;;13.27;78.40
34696;BME280;20918;51.138;17.370;2022-08-30T00:22:15;100588.00;;;13.26;78.50
34696;BME280;20918;51.138;17.370;2022-08-30T00:25:17;100595.32;;;13.19;78.37
34696;BME280;20918;51.138;17.370;2022-08-30T00:28:18;100601.20;;;13.07;78.49
34696;BME280;20918;51.138;17.370;2022-08-30T00:31:19;100599.23;;;12.96;78.84
34696;BME280;20918;51.138;17.370;2022-08-30T00:34:21;100597.06;;;12.92;79.15
34696;BME280;20918;51.138;17.370;2022-08-30T00:37:22;100598.23;;;12.93;79.33
34696;BME280;20918;51.138;17.370;2022-08-30T00:40:24;100597.58;;;12.95;79.46
34696;BME280;20918;51.138;17.370;2022-08-30T00:43:29;100594.22;;;12.97;79.67
34696;BME280;20918;51.138;17.370;2022-08-30T00:46:33;100596.06;;;12.97;79.57
34696;BME280;20918;51.138;17.370;2022-08-30T00:49:36;100596.41;;;12.98;79.65
34696;BME280;20918;51.138;17.370;2022-08-30T00:52:39;100593.73;;;12.94;79.50
34696;BME280;20918;51.138;17.370;2022-08-30T00:55:43;100590.56;;;12.94;79.46
34696;BME280;20918;51.138;17.370;2022-08-30T00:58:47;100583.91;;;12.94;79.47
34696;BME280;20918;51.138;17.370;2022-08-30T01:01:51;100585.59;;;12.95;79.61
34696;BME280;20918;51.138;17.370;2022-08-30T01:04:53;100581.59;;;12.95;79.50
34696;BME280;20918;51.138;17.370;2022-08-30T01:07:54;100583.75;;;12.96;79.59
34696;BME280;20918;51.138;17.370;2022-08-30T01:10:56;100582.42;;;12.96;79.60
34696;BME280;20918;51.138;17.370;2022-08-30T01:13:58;100583.09;;;12.98;79.78
34696;BME280;20918;51.138;17.370;2022-08-30T01:16:59;100586.39;;;13.00;80.01
34696;BME280;20918;51.138;17.370;2022-08-30T01:20:08;100583.38;;;13.03;80.18
34696;BME280;20918;51.138;17.370;2022-08-30T01:23:16;100585.89;;;13.05;80.21
34696;BME280;20918;51.138;17.370;2022-08-30T01:26:18;100582.56;;;13.03;80.20
34696;BME280;20918;51.138;17.370;2022-08-30T01:29:22;100582.40;;;13.04;80.33
34696;BME280;20918;51.138;17.370;2022-08-30T01:32:28;100580.24;;;13.04;80.10
34696;BME280;20918;51.138;17.370;2022-08-30T01:35:34;100581.57;;;12.99;80.00
34696;BME280;20918;51.138;17.370;2022-08-30T01:38:54;100587.72;;;13.00;80.11
34696;BME280;20918;51.138;17.370;2022-08-30T01:41:56;100587.09;;;12.98;80.14
34696;BME280;20918;51.138;17.370;2022-08-30T01:44:57;100589.87;;;13.00;80.52
34696;BME280;20918;51.138;17.370;2022-08-30T01:47:58;100588.08;;;13.01;80.39
34696;BME280;20918;51.138;17.370;2022-08-30T01:50:59;100581.76;;;12.98;80.18
34696;BME280;20918;51.138;17.370;2022-08-30T01:54:01;100589.23;;;12.94;80.19
34696;BME280;20918;51.138;17.370;2022-08-30T01:57:03;100587.74;;;12.92;80.23
34696;BME280;20918;51.138;17.370;2022-08-30T02:00:09;100585.27;;;12.90;80.42
34696;BME280;20918;51.138;17.370;2022-08-30T02:03:13;100589.77;;;12.90;80.44
34696;BME280;20918;51.138;17.370;2022-08-30T02:06:17;100592.09;;;12.93;80.95
34696;BME280;20918;51.138;17.370;2022-08-30T02:09:18;100592.41;;;12.94;80.88
34696;BME280;20918;51.138;17.370;2022-08-30T02:12:20;100598.05;;;12.95;80.92
34696;BME280;20918;51.138;17.370;2022-08-30T02:15:21;100593.58;;;12.95;80.96
34696;BME280;20918;51.138;17.370;2022-08-30T02:18:23;100590.56;;;12.94;80.85
34696;BME280;20918;51.138;17.370;2022-08-30T02:21:26;100594.75;;;12.93;80.83
34696;BME280;20918;51.138;17.370;2022-08-30T02:24:27;100591.44;;;12.87;80.60
34696;BME280;20918;51.138;17.370;2022-08-30T02:27:28;100596.42;;;12.86;80.78
34696;BME280;20918;51.138;17.370;2022-08-30T02:30:29;100596.27;;;12.87;80.86
34696;BME280;20918;51.138;17.370;2022-08-30T02:33:30;100600.77;;;12.87;80.63
34696;BME280;20918;51.138;17.370;2022-08-30T02:36:31;100603.08;;;12.86;80.76
34696;BME280;20918;51.138;17.370;2022-08-30T02:39:32;100600.59;;;12.84;80.73
34696;BME280;20918;51.138;17.370;2022-08-30T02:42:33;100603.27;;;12.84;80.81
34696;BME280;20918;51.138;17.370;2022-08-30T02:45:34;100601.42;;;12.81;80.82
34696;BME280;20918;51.138;17.370;2022-08-30T02:48:36;100593.94;;;12.80;80.82
34696;BME280;20918;51.138;17.370;2022-08-30T02:51:37;100593.61;;;12.79;81.02
34696;BME280;20918;51.138;17.370;2022-08-30T02:54:39;100593.94;;;12.80;81.19
34696;BME280;20918;51.138;17.370;2022-08-30T02:57:40;100598.09;;;12.83;81.44
34696;BME280;20918;51.138;17.370;2022-08-30T03:00:41;100583.77;;;12.84;81.51
34696;BME280;20918;51.138;17.370;2022-08-30T03:03:43;100588.78;;;12.87;81.71
34696;BME280;20918;51.138;17.370;2022-08-30T03:06:45;100594.59;;;12.90;81.82
34696;BME280;20918;51.138;17.370;2022-08-30T03:09:46;100596.41;;;12.94;82.05
34696;BME280;20918;51.138;17.370;2022-08-30T03:12:47;100601.55;;;12.99;82.28
34696;BME280;20918;51.138;17.370;2022-08-30T03:15:48;100607.02;;;13.06;82.64
34696;BME280;20918;51.138;17.370;2022-08-30T03:18:50;100603.53;;;13.10;82.96
34696;BME280;20918;51.138;17.370;2022-08-30T03:21:51;100612.51;;;13.13;83.02
34696;BME280;20918;51.138;17.370;2022-08-30T03:24:52;100617.81;;;13.17;83.24
34696;BME280;20918;51.138;17.370;2022-08-30T03:27:53;100613.13;;;13.23;83.26
34696;BME280;20918;51.138;17.370;2022-08-30T03:30:54;100608.65;;;13.23;83.28
34696;BME280;20918;51.138;17.370;2022-08-30T03:33:56;100606.30;;;13.24;83.32
34696;BME280;20918;51.138;17.370;2022-08-30T03:36:57;100606.30;;;13.24;83.41
34696;BME280;20918;51.138;17.370;2022-08-30T03:40:02;100616.64;;;13.28;83.62
34696;BME280;20918;51.138;17.370;2022-08-30T03:43:04;100623.13;;;13.33;83.68
34696;BME280;20918;51.138;17.370;2022-08-30T03:46:05;100616.94;;;13.37;83.66
34696;BME280;20918;51.138;17.370;2022-08-30T03:49:07;100621.44;;;13.40;83.74
34696;BME280;20918;51.138;17.370;2022-08-30T03:52:08;100623.76;;;13.43;83.76
34696;BME280;20918;51.138;17.370;2022-08-30T03:55:09;100626.74;;;13.44;83.78
34696;BME280;20918;51.138;17.370;2022-08-30T03:58:10;100618.08;;;13.47;83.90
34696;BME280;20918;51.138;17.370;2022-08-30T04:01:11;100613.22;;;13.50;83.92
34696;BME280;20918;51.138;17.370;2022-08-30T04:04:13;100618.39;;;13.52;83.82
34696;BME280;20918;51.138;17.370;2022-08-30T04:07:14;100621.70;;;13.54;83.78
34696;BME280;20918;51.138;17.370;2022-08-30T04:10:15;100618.20;;;13.53;83.85
34696;BME280;20918;51.138;17.370;2022-08-30T04:13:17;100617.06;;;13.52;83.85
34696;BME280;20918;51.138;17.370;2022-08-30T04:16:18;100619.38;;;13.51;83.93
34696;BME280;20918;51.138;17.370;2022-08-30T04:19:19;100620.55;;;13.52;84.01
34696;BME280;20918;51.138;17.370;2022-08-30T04:22:20;100624.20;;;13.55;84.18
34696;BME280;20918;51.138;17.370;2022-08-30T04:25:22;100627.34;;;13.59;84.34
34696;BME280;20918;51.138;17.370;2022-08-30T04:28:23;100628.83;;;13.61;84.48
34696;BME280;20918;51.138;17.370;2022-08-30T04:31:23;100626.13;;;13.65;84.59
34696;BME280;20918;51.138;17.370;2022-08-30T04:34:26;100633.30;;;13.69;84.60
34696;BME280;20918;51.138;17.370;2022-08-30T04:37:27;100634.60;;;13.73;84.70
34696;BME280;20918;51.138;17.370;2022-08-30T04:40:28;100638.59;;;13.77;84.80
34696;BME280;20918;51.138;17.370;2022-08-30T04:43:29;100643.54;;;13.88;85.05
34696;BME280;20918;51.138;17.370;2022-08-30T04:46:30;100641.45;;;13.99;85.05
34696;BME280;20918;51.138;17.370;2022-08-30T04:49:31;100641.72;;;14.12;85.06
34696;BME280;20918;51.138;17.370;2022-08-30T04:52:32;100638.73;;;14.34;85.28
34696;BME280;20918;51.138;17.370;2022-08-30T04:55:34;100641.05;;;14.60;84.96
34696;BME280;20918;51.138;17.370;2022-08-30T04:58:35;100643.27;;;14.75;84.69
34696;BME280;20918;51.138;17.370;2022-08-30T05:01:36;100642.85;;;14.97;84.76
34696;BME280;20918;51.138;17.370;2022-08-30T05:04:37;100639.25;;;15.24;84.63
34696;BME280;20918;51.138;17.370;2022-08-30T05:07:40;100642.43;;;15.79;84.73
34696;BME280;20918;51.138;17.370;2022-08-30T05:10:43;100649.11;;;16.15;83.73
34696;BME280;20918;51.138;17.370;2022-08-30T05:13:49;100644.27;;;16.14;82.93
34696;BME280;20918;51.138;17.370;2022-08-30T05:16:50;100647.52;;;16.21;82.71
34696;BME280;20918;51.138;17.370;2022-08-30T05:19:51;100652.83;;;16.25;82.42
34696;BME280;20918;51.138;17.370;2022-08-30T05:22:52;100645.41;;;16.27;82.15
34696;BME280;20918;51.138;17.370;2022-08-30T05:25:53;100645.16;;;16.43;82.17
34696;BME280;20918;51.138;17.370;2022-08-30T05:28:54;100652.50;;;16.45;81.56
34696;BME280;20918;51.138;17.370;2022-08-30T05:31:57;100655.05;;;16.43;81.50
34696;BME280;20918;51.138;17.370;2022-08-30T05:34:58;100650.72;;;16.31;81.23
34696;BME280;20918;51.138;17.370;2022-08-30T05:37:59;100655.69;;;16.34;81.38
34696;BME280;20918;51.138;17.370;2022-08-30T05:41:00;100657.41;;;16.31;81.37
34696;BME280;20918;51.138;17.370;2022-08-30T05:44:03;100659.75;;;16.30;81.34
34696;BME280;20918;51.138;17.370;2022-08-30T05:47:06;100666.14;;;16.29;81.57
34696;BME280;20918;51.138;17.370;2022-08-30T05:50:07;100662.05;;;16.33;81.62
34696;BME280;20918;51.138;17.370;2022-08-30T05:53:09;100658.38;;;16.34;81.59
34696;BME280;20918;51.138;17.370;2022-08-30T05:56:12;100661.73;;;16.32;81.55
34696;BME280;20918;51.138;17.370;2022-08-30T05:59:15;100666.66;;;16.28;81.60
34696;BME280;20918;51.138;17.370;2022-08-30T06:02:16;100668.13;;;16.31;81.65
34696;BME280;20918;51.138;17.370;2022-08-30T06:05:17;100666.58;;;16.32;81.73
34696;BME280;20918;51.138;17.370;2022-08-30T06:08:19;100666.84;;;16.38;81.90
34696;BME280;20918;51.138;17.370;2022-08-30T06:11:22;100660.92;;;16.42;82.14
34696;BME280;20918;51.138;17.370;2022-08-30T06:14:24;100662.18;;;16.46;82.11
34696;BME280;20918;51.138;17.370;2022-08-30T06:17:26;100665.25;;;16.54;82.16
34696;BME280;20918;51.138;17.370;2022-08-30T06:20:27;100664.16;;;16.59;82.21
34696;BME280;20918;51.138;17.370;2022-08-30T06:23:28;100667.14;;;16.71;82.34
34696;BME280;20918;51.138;17.370;2022-08-30T06:26:30;100661.68;;;16.79;82.35
34696;BME280;20918;51.138;17.370;2022-08-30T06:29:31;100670.19;;;16.89;82.43
34696;BME280;20918;51.138;17.370;2022-08-30T06:32:33;100670.69;;;16.99;82.29
34696;BME280;20918;51.138;17.370;2022-08-30T06:35:35;100676.21;;;17.09;82.31
34696;BME280;20918;51.138;17.370;2022-08-30T06:38:36;100681.42;;;17.17;82.23
34696;BME280;20918;51.138;17.370;2022-08-30T06:41:39;100677.07;;;17.27;82.26
34696;BME280;20918;51.138;17.370;2022-08-30T06:44:43;100677.62;;;17.33;82.15
34696;BME280;20918;51.138;17.370;2022-08-30T06:47:45;100682.06;;;17.36;82.03
34696;BME280;20918;51.138;17.370;2022-08-30T06:50:52;100682.70;;;17.38;81.96
34696;BME280;20918;51.138;17.370;2022-08-30T06:53:54;100681.91;;;17.44;81.93
34696;BME280;20918;51.138;17.370;2022-08-30T06:56:56;100682.03;;;17.47;81.94
34696;BME280;20918;51.138;17.370;2022-08-30T06:59:57;100683.79;;;17.51;82.04
34696;BME280;20918;51.138;17.370;2022-08-30T07:02:58;100682.91;;;17.54;82.03
34696;BME280;20918;51.138;17.370;2022-08-30T07:06:01;100686.95;;;17.61;81.96
34696;BME280;20918;51.138;17.370;2022-08-30T07:09:02;100684.52;;;17.73;82.18
34696;BME280;20918;51.138;17.370;2022-08-30T07:12:04;100689.23;;;17.81;81.97
34696;BME280;20918;51.138;17.370;2022-08-30T07:15:07;100689.88;;;17.90;81.80
34696;BME280;20918;51.138;17.370;2022-08-30T07:18:10;100690.94;;;17.96;81.62
34696;BME280;20918;51.138;17.370;2022-08-30T07:21:36;100693.02;;;17.94;81.41
34696;BME280;20918;51.138;17.370;2022-08-30T07:24:39;100687.83;;;17.92;81.49
34696;BME280;20918;51.138;17.370;2022-08-30T07:27:40;100696.24;;;18.06;81.66
34696;BME280;20918;51.138;17.370;2022-08-30T07:30:42;100696.92;;;18.22;81.40
34696;BME280;20918;51.138;17.370;2022-08-30T07:33:43;100701.78;;;18.29;81.14
34696;BME280;20918;51.138;17.370;2022-08-30T07:36:44;100704.39;;;18.33;80.99
34696;BME280;20918;51.138;17.370;2022-08-30T07:39:45;100713.27;;;18.33;80.98
34696;BME280;20918;51.138;17.370;2022-08-30T07:42:46;100709.55;;;18.34;80.93
34696;BME280;20918;51.138;17.370;2022-08-30T07:45:47;100703.98;;;18.49;81.18
34696;BME280;20918;51.138;17.370;2022-08-30T07:48:49;100702.55;;;18.60;81.00
34696;BME280;20918;51.138;17.370;2022-08-30T07:51:50;100705.56;;;18.68;80.97
34696;BME280;20918;51.138;17.370;2022-08-30T07:54:51;100700.63;;;18.78;80.58
34696;BME280;20918;51.138;17.370;2022-08-30T07:57:52;100709.74;;;18.90;80.50
34696;BME280;20918;51.138;17.370;2022-08-30T08:00:54;100706.73;;;19.02;80.38
34696;BME280;20918;51.138;17.370;2022-08-30T08:03:57;100705.08;;;19.15;80.21
34696;BME280;20918;51.138;17.370;2022-08-30T08:06:58;100709.59;;;19.28;79.87
34696;BME280;20918;51.138;17.370;2022-08-30T08:09:59;100711.67;;;19.32;79.73
34696;BME280;20918;51.138;17.370;2022-08-30T08:13:00;100715.91;;;19.37;79.17
34696;BME280;20918;51.138;17.370;2022-08-30T08:16:02;100718.55;;;19.57;79.38
34696;BME280;20918;51.138;17.370;2022-08-30T08:19:04;100716.52;;;19.82;79.17
34696;BME280;20918;51.138;17.370;2022-08-30T08:22:07;100719.55;;;19.99;78.70
34696;BME280;20918;51.138;17.370;2022-08-30T08:25:08;100725.36;;;20.02;78.03
34696;BME280;20918;51.138;17.370;2022-08-30T08:28:09;100726.53;;;20.13;77.62
34696;BME280;20918;51.138;17.370;2022-08-30T08:31:24;100731.33;;;20.27;77.56
34696;BME280;20918;51.138;17.370;2022-08-30T08:34:23;100733.78;;;20.35;77.15
34696;BME280;20918;51.138;17.370;2022-08-30T08:37:24;100732.66;;;20.56;76.97
34696;BME280;20918;51.138;17.370;2022-08-30T08:40:26;100734.24;;;20.64;76.32
34696;BME280;20918;51.138;17.370;2022-08-30T08:43:29;100735.03;;;20.87;75.95
34696;BME280;20918;51.138;17.370;2022-08-30T08:46:40;100737.49;;;21.13;75.72
34696;BME280;20918;51.138;17.370;2022-08-30T08:49:46;100732.92;;;21.48;75.01
34696;BME280;20918;51.138;17.370;2022-08-30T08:52:56;100740.36;;;21.89;74.19
34696;BME280;20918;51.138;17.370;2022-08-30T08:56:20;100741.65;;;22.45;72.57
34696;BME280;20918;51.138;17.370;2022-08-30T08:59:24;100742.28;;;23.00;72.83
34696;BME280;20918;51.138;17.370;2022-08-30T09:02:27;100734.28;;;23.41;72.26
34696;BME280;20918;51.138;17.370;2022-08-30T09:05:34;100738.73;;;23.70;70.88
34696;BME280;20918;51.138;17.370;2022-08-30T09:08:35;100731.74;;;23.48;69.25
34696;BME280;20918;51.138;17.370;2022-08-30T09:11:37;100733.75;;;23.67;68.30
34696;BME280;20918;51.138;17.370;2022-08-30T09:14:50;100729.20;;;23.44;68.18
34696;BME280;20918;51.138;17.370;2022-08-30T09:18:00;100730.73;;;23.52;67.92
34696;BME280;20918;51.138;17.370;2022-08-30T09:21:08;100729.55;;;24.12;67.70
34696;BME280;20918;51.138;17.370;2022-08-30T09:24:12;100724.61;;;24.52;65.49
34696;BME280;20918;51.138;17.370;2022-08-30T09:27:27;100729.64;;;24.60;64.58
34696;BME280;20918;51.138;17.370;2022-08-30T09:30:32;100732.94;;;24.33;62.82
34696;BME280;20918;51.138;17.370;2022-08-30T09:33:33;100734.83;;;23.66;62.66
34696;BME280;20918;51.138;17.370;2022-08-30T09:39:45;100736.75;;;23.07;63.60
34696;BME280;20918;51.138;17.370;2022-08-30T09:43:05;100728.66;;;23.45;64.64
34696;BME280;20918;51.138;17.370;2022-08-30T09:46:10;100725.32;;;24.04;63.47
34696;BME280;20918;51.138;17.370;2022-08-30T09:49:33;100719.30;;;24.74;61.96
34696;BME280;20918;51.138;17.370;2022-08-30T09:52:59;100721.83;;;24.80;60.76
34696;BME280;20918;51.138;17.370;2022-08-30T10:09:40;100717.29;;;24.67;58.68
34696;BME280;20918;51.138;17.370;2022-08-30T10:13:02;100703.10;;;24.79;59.44
34696;BME280;20918;51.138;17.370;2022-08-30T10:16:10;100703.00;;;25.24;58.17
34696;BME280;20918;51.138;17.370;2022-08-30T10:19:34;100701.05;;;25.61;58.01
34696;BME280;20918;51.138;17.370;2022-08-30T10:22:55;100699.73;;;26.08;56.82
34696;BME280;20918;51.138;17.370;2022-08-30T10:26:17;100699.61;;;26.22;55.63
34696;BME280;20918;51.138;17.370;2022-08-30T10:29:53;100697.40;;;26.49;55.44
34696;BME280;20918;51.138;17.370;2022-08-30T10:33:07;100695.94;;;26.36;54.88
34696;BME280;20918;51.138;17.370;2022-08-30T10:36:11;100693.05;;;26.48;54.47
34696;BME280;20918;51.138;17.370;2022-08-30T10:39:24;100700.06;;;26.44;53.43
34696;BME280;20918;51.138;17.370;2022-08-30T10:42:29;100695.97;;;26.38;53.42
34696;BME280;20918;51.138;17.370;2022-08-30T10:45:33;100690.70;;;26.02;53.09
34696;BME280;20918;51.138;17.370;2022-08-30T10:48:42;100692.11;;;25.63;53.15
34696;BME280;20918;51.138;17.370;2022-08-30T10:55:17;100694.77;;;25.02;53.12
34696;BME280;20918;51.138;17.370;2022-08-30T10:58:26;100684.73;;;25.20;53.22
34696;BME280;20918;51.138;17.370;2022-08-30T11:08:36;100682.15;;;24.43;53.04
34696;BME280;20918;51.138;17.370;2022-08-30T11:11:56;100682.36;;;24.25;52.99
34696;BME280;20918;51.138;17.370;2022-08-30T11:15:21;100675.70;;;24.18;53.54
34696;BME280;20918;51.138;17.370;2022-08-30T11:18:25;100685.45;;;24.16;53.95
34696;BME280;20918;51.138;17.370;2022-08-30T11:21:41;100670.53;;;24.45;53.64
34696;BME280;20918;51.138;17.370;2022-08-30T11:25:00;100674.66;;;24.65;53.67
34696;BME280;20918;51.138;17.370;2022-08-30T11:28:05;100667.42;;;24.70;53.55
34696;BME280;20918;51.138;17.370;2022-08-30T11:37:56;100669.30;;;24.24;53.09
34696;BME280;20918;51.138;17.370;2022-08-30T11:41:07;100665.75;;;24.38;53.28
34696;BME280;20918;51.138;17.370;2022-08-30T11:47:50;100661.88;;;24.99;53.05
34696;BME280;20918;51.138;17.370;2022-08-30T11:51:05;100662.96;;;25.15;52.17
34696;BME280;20918;51.138;17.370;2022-08-30T12:01:11;100658.51;;;24.55;51.21
34696;BME280;20918;51.138;17.370;2022-08-30T12:10:59;100645.50;;;24.57;51.53
34696;BME280;20918;51.138;17.370;2022-08-30T12:14:05;100645.00;;;24.60;51.68
34696;BME280;20918;51.138;17.370;2022-08-30T12:17:14;100649.55;;;24.91;51.84
34696;BME280;20918;51.138;17.370;2022-08-30T12:20:46;100633.37;;;25.16;51.09
34696;BME280;20918;51.138;17.370;2022-08-30T12:27:27;100637.27;;;25.66;50.25
34696;BME280;20918;51.138;17.370;2022-08-30T12:30:31;100638.44;;;25.76;49.82
34696;BME280;20918;51.138;17.370;2022-08-30T12:33:40;100628.69;;;25.77;49.44
34696;BME280;20918;51.138;17.370;2022-08-30T12:36:54;100630.13;;;25.60;49.07
34696;BME280;20918;51.138;17.370;2022-08-30T12:40:14;100623.31;;;25.36;48.84
34696;BME280;20918;51.138;17.370;2022-08-30T12:46:30;100626.27;;;24.76;48.83
34696;BME280;20918;51.138;17.370;2022-08-30T12:49:34;100623.91;;;24.82;48.74
34696;BME280;20918;51.138;17.370;2022-08-30T12:52:39;100622.38;;;24.72;48.12
34696;BME280;20918;51.138;17.370;2022-08-30T12:55:55;100621.90;;;24.58;48.45
34696;BME280;20918;51.138;17.370;2022-08-30T12:58:59;100615.91;;;24.73;48.88
34696;BME280;20918;51.138;17.370;2022-08-30T13:02:11;100611.31;;;24.93;48.40
34696;BME280;20918;51.138;17.370;2022-08-30T13:05:41;100605.73;;;25.02;48.64
34696;BME280;20918;51.138;17.370;2022-08-30T13:11:51;100602.77;;;25.45;48.88
34696;BME280;20918;51.138;17.370;2022-08-30T13:15:10;100605.73;;;25.65;48.74
34696;BME280;20918;51.138;17.370;2022-08-30T13:18:24;100606.34;;;25.72;48.60
34696;BME280;20918;51.138;17.370;2022-08-30T13:21:32;100605.08;;;25.80;48.47
34696;BME280;20918;51.138;17.370;2022-08-30T13:24:34;100596.19;;;25.87;48.63
34696;BME280;20918;51.138;17.370;2022-08-30T13:27:37;100596.22;;;25.90;47.64
34696;BME280;20918;51.138;17.370;2022-08-30T13:30:39;100595.11;;;25.86;47.49
34696;BME280;20918;51.138;17.370;2022-08-30T13:33:41;100594.84;;;25.85;47.37
34696;BME280;20918;51.138;17.370;2022-08-30T13:36:52;100592.27;;;25.78;46.77
34696;BME280;20918;51.138;17.370;2022-08-30T13:39:50;100590.01;;;25.70;47.01
34696;BME280;20918;51.138;17.370;2022-08-30T13:42:51;100592.48;;;25.71;47.19
34696;BME280;20918;51.138;17.370;2022-08-30T13:45:53;100588.65;;;25.70;46.70
34696;BME280;20918;51.138;17.370;2022-08-30T13:48:57;100581.77;;;25.60;46.99
34696;BME280;20918;51.138;17.370;2022-08-30T13:52:06;100581.92;;;25.50;46.48
34696;BME280;20918;51.138;17.370;2022-08-30T13:55:08;100570.08;;;25.35;46.47
34696;BME280;20918;51.138;17.370;2022-08-30T13:58:10;100581.31;;;25.21;46.73
34696;BME280;20918;51.138;17.370;2022-08-30T14:01:11;100584.77;;;25.17;46.87
34696;BME280;20918;51.138;17.370;2022-08-30T14:04:12;100581.23;;;25.16;46.91
34696;BME280;20918;51.138;17.370;2022-08-30T14:07:13;100575.36;;;25.05;46.68
34696;BME280;20918;51.138;17.370;2022-08-30T14:10:17;100577.49;;;25.00;46.61
34696;BME280;20918;51.138;17.370;2022-08-30T14:13:19;100572.95;;;25.09;47.38
34696;BME280;20918;51.138;17.370;2022-08-30T14:16:20;100571.20;;;25.17;47.64
34696;BME280;20918;51.138;17.370;2022-08-30T14:19:21;100569.13;;;25.04;46.99
34696;BME280;20918;51.138;17.370;2022-08-30T14:22:22;100563.77;;;24.90;47.27
34696;BME280;20918;51.138;17.370;2022-08-30T14:25:23;100559.48;;;24.75;47.39
34696;BME280;20918;51.138;17.370;2022-08-30T14:28:27;100561.71;;;24.58;47.28
34696;BME280;20918;51.138;17.370;2022-08-30T14:31:29;100560.55;;;24.54;47.76
34696;BME280;20918;51.138;17.370;2022-08-30T14:34:31;100566.28;;;24.55;47.61
34696;BME280;20918;51.138;17.370;2022-08-30T14:37:32;100568.91;;;24.50;47.49
34696;BME280;20918;51.138;17.370;2022-08-30T14:40:33;100566.97;;;24.48;47.39
34696;BME280;20918;51.138;17.370;2022-08-30T14:43:37;100554.19;;;24.46;47.30
34696;BME280;20918;51.138;17.370;2022-08-30T14:46:41;100560.80;;;24.36;47.25
34696;BME280;20918;51.138;17.370;2022-08-30T14:49:43;100565.22;;;24.08;47.03
34696;BME280;20918;51.138;17.370;2022-08-30T14:52:44;100559.03;;;23.96;47.10
34696;BME280;20918;51.138;17.370;2022-08-30T14:55:45;100552.84;;;23.98;47.50
34696;BME280;20918;51.138;17.370;2022-08-30T14:58:50;100543.05;;;23.80;47.42
34696;BME280;20918;51.138;17.370;2022-08-30T15:01:53;100553.23;;;23.90;47.64
34696;BME280;20918;51.138;17.370;2022-08-30T15:04:54;100552.42;;;23.89;47.75
34696;BME280;20918;51.138;17.370;2022-08-30T15:07:57;100550.86;;;23.77;48.01
34696;BME280;20918;51.138;17.370;2022-08-30T15:10:58;100555.23;;;23.66;48.42
34696;BME280;20918;51.138;17.370;2022-08-30T15:14:00;100546.08;;;23.55;48.56
34696;BME280;20918;51.138;17.370;2022-08-30T15:17:05;100546.08;;;23.55;48.67
34696;BME280;20918;51.138;17.370;2022-08-30T15:20:07;100540.88;;;23.51;48.57
34696;BME280;20918;51.138;17.370;2022-08-30T15:23:09;100541.63;;;23.20;49.07
34696;BME280;20918;51.138;17.370;2022-08-30T15:26:10;100538.87;;;22.94;49.44
34696;BME280;20918;51.138;17.370;2022-08-30T15:29:16;100543.61;;;22.87;50.36
34696;BME280;20918;51.138;17.370;2022-08-30T15:32:18;100546.22;;;22.70;49.50
34696;BME280;20918;51.138;17.370;2022-08-30T15:35:19;100543.09;;;22.52;50.69
34696;BME280;20918;51.138;17.370;2022-08-30T15:38:20;100539.85;;;22.41;50.65
34696;BME280;20918;51.138;17.370;2022-08-30T15:41:22;100547.55;;;22.35;50.72
34696;BME280;20918;51.138;17.370;2022-08-30T15:44:23;100545.63;;;22.33;51.24
34696;BME280;20918;51.138;17.370;2022-08-30T15:47:25;100543.69;;;22.31;51.38
34696;BME280;20918;51.138;17.370;2022-08-30T15:50:27;100546.55;;;22.27;51.97
34696;BME280;20918;51.138;17.370;2022-08-30T15:53:28;100538.81;;;22.30;52.52
34696;BME280;20918;51.138;17.370;2022-08-30T15:56:30;100536.11;;;22.30;52.36
34696;BME280;20918;51.138;17.370;2022-08-30T15:59:32;100539.84;;;22.29;52.38
34696;BME280;20918;51.138;17.370;2022-08-30T16:02:33;100536.92;;;22.31;52.61
34696;BME280;20918;51.138;17.370;2022-08-30T16:05:34;100535.85;;;22.20;52.66
34696;BME280;20918;51.138;17.370;2022-08-30T16:08:35;100539.55;;;22.07;52.67
34696;BME280;20918;51.138;17.370;2022-08-30T16:11:37;100539.58;;;21.86;53.01
34696;BME280;20918;51.138;17.370;2022-08-30T16:14:39;100538.66;;;21.71;53.46
34696;BME280;20918;51.138;17.370;2022-08-30T16:17:40;100535.47;;;21.54;54.03
34696;BME280;20918;51.138;17.370;2022-08-30T16:20:42;100538.44;;;21.43;54.21
34696;BME280;20918;51.138;17.370;2022-08-30T16:23:44;100539.18;;;21.32;54.50
34696;BME280;20918;51.138;17.370;2022-08-30T16:26:49;100528.30;;;21.20;54.82
34696;BME280;20918;51.138;17.370;2022-08-30T16:29:50;100534.70;;;21.07;55.01
34696;BME280;20918;51.138;17.370;2022-08-30T16:32:52;100530.58;;;20.95;55.13
34696;BME280;20918;51.138;17.370;2022-08-30T16:35:54;100532.36;;;20.83;55.29
34696;BME280;20918;51.138;17.370;2022-08-30T16:38:59;100534.77;;;20.73;55.82
34696;BME280;20918;51.138;17.370;2022-08-30T16:42:00;100532.20;;;20.59;56.24
34696;BME280;20918;51.138;17.370;2022-08-30T16:45:04;100529.91;;;20.47;56.33
34696;BME280;20918;51.138;17.370;2022-08-30T16:48:06;100534.36;;;20.35;56.70
34696;BME280;20918;51.138;17.370;2022-08-30T16:51:15;100529.48;;;20.25;57.00